Time;durP1;ratioP1;P1;durP2;ratioP2;P2;SDS_P1;SDS_P2;PMS_P1;PMS_P2;Temp;Humidity;BMP_temperature;BMP_pressure;BME280_temperature;BME280_humidity;BME280_pressure;Samples;Min_cycle;Max_cycle;Signal;HPM_P1;HPM_P2
2022/08/06 00:02:39;;;;;;;3.42;2.28;;;;;;;17.67;71.76;100420.72;12209188;19;20014;-82
2022/08/06 00:06:42;;;;;;;5.32;2.20;;;;;;;17.64;71.93;100429.66;12186456;19;20097;-82
2022/08/06 00:10:44;;;;;;;2.63;2.10;;;;;;;17.59;72.04;100443.59;12206923;19;20449;-82
2022/08/06 00:14:49;;;;;;;4.13;2.40;;;;;;;17.52;71.85;100445.84;12206402;19;20007;-81
2022/08/06 00:18:51;;;;;;;4.60;2.20;;;;;;;17.45;72.15;100448.88;12187781;19;20046;-83
2022/08/06 00:22:53;;;;;;;10.35;2.90;;;;;;;17.41;72.52;100458.09;12206280;19;20078;-83
2022/08/06 00:26:54;;;;;;;3.55;2.28;;;;;;;17.33;72.95;100462.25;12198071;19;20077;-82
2022/08/06 00:31:07;;;;;;;4.45;2.40;;;;;;;17.26;72.83;100481.22;12182295;19;20468;-81
2022/08/06 00:35:12;;;;;;;3.55;2.17;;;;;;;17.18;73.39;100481.75;12209346;19;20006;-81
2022/08/06 00:39:16;;;;;;;5.35;2.17;;;;;;;17.15;73.44;100496.25;12215699;19;20010;-81
2022/08/06 00:43:18;;;;;;;5.53;2.35;;;;;;;17.05;73.30;100494.28;12185554;19;20006;-81
2022/08/06 00:47:20;;;;;;;3.08;2.03;;;;;;;16.93;73.35;100497.34;12204893;19;20014;-82
2022/08/06 00:51:42;;;;;;;3.25;2.33;;;;;;;16.85;73.78;100500.66;12185532;19;20006;-81
2022/08/06 00:55:52;;;;;;;2.80;1.80;;;;;;;16.77;73.55;100510.34;12205573;19;20006;-81
2022/08/06 01:00:03;;;;;;;5.57;2.00;;;;;;;16.71;73.52;100500.28;12203057;19;20003;-82
2022/08/06 01:04:24;;;;;;;3.38;2.03;;;;;;;16.67;73.68;100501.13;12182205;19;20517;-82
2022/08/06 01:08:28;;;;;;;5.13;2.20;;;;;;;16.64;73.57;100505.28;12208030;19;20030;-81
2022/08/06 01:12:30;;;;;;;3.75;2.20;;;;;;;16.60;73.35;100504.16;12206402;19;20010;-80
2022/08/06 01:16:43;;;;;;;3.20;1.80;;;;;;;16.52;73.71;100511.09;12182455;19;20038;-80
2022/08/06 01:21:40;;;;;;;6.68;2.17;;;;;;;16.51;74.33;100516.91;12206214;19;20007;-81
2022/08/06 01:26:13;;;;;;;3.80;1.98;;;;;;;16.49;73.67;100516.38;12102359;19;2004862;-81
2022/08/06 01:30:27;;;;;;;2.60;1.77;;;;;;;16.43;73.29;100515.50;12231531;19;20011;-80
2022/08/06 01:34:38;;;;;;;1.92;1.35;;;;;;;16.39;73.10;100515.22;12241384;19;20453;-82
2022/08/06 01:38:50;;;;;;;2.53;1.90;;;;;;;16.33;72.73;100513.53;12225763;19;20014;-83
2022/08/06 01:43:03;;;;;;;3.63;1.65;;;;;;;16.28;72.19;100513.50;12203788;19;20011;-83
2022/08/06 01:47:25;;;;;;;;;;;;;;;16.26;73.17;100509.31;12221340;19;20489;-81
2022/08/06 01:51:50;;;;;;;6.00;1.88;;;;;;;16.22;72.54;100516.53;12203351;19;20522;-80
2022/08/06 01:56:12;;;;;;;4.90;1.92;;;;;;;16.14;72.71;100521.47;12220283;19;20014;-82
2022/08/06 02:00:27;;;;;;;2.45;1.55;;;;;;;16.10;72.50;100517.56;12218075;19;20006;-81
2022/08/06 02:04:34;;;;;;;2.40;1.55;;;;;;;16.06;72.64;100519.22;12198206;19;20032;-83
2022/08/06 02:08:42;;;;;;;3.63;1.75;;;;;;;16.02;73.02;100522.78;12219238;19;20422;-82
2022/08/06 02:12:46;;;;;;;3.25;1.70;;;;;;;15.98;72.58;100525.28;12195136;19;20505;-84
2022/08/06 02:16:49;;;;;;;5.60;1.45;;;;;;;15.92;72.58;100535.53;12217580;19;20358;-83
2022/08/06 02:20:54;;;;;;;3.53;1.45;;;;;;;15.89;73.17;100533.28;12217929;19;20015;-82
2022/08/06 02:25:00;;;;;;;3.00;1.60;;;;;;;15.87;73.10;100537.44;12187385;19;20018;-80
2022/08/06 02:29:08;;;;;;;3.15;1.63;;;;;;;15.83;73.33;100534.34;12213355;19;20475;-81
2022/08/06 02:33:15;;;;;;;3.05;1.88;;;;;;;15.75;74.04;100529.28;12211069;19;20024;-81
2022/08/06 02:37:23;;;;;;;4.15;1.70;;;;;;;15.69;73.54;100542.28;12191635;19;20469;-81
2022/08/06 02:42:05;;;;;;;4.15;1.73;;;;;;;15.66;73.66;100536.41;12207274;19;20030;-81
2022/08/06 02:46:25;;;;;;;2.20;1.50;;;;;;;15.65;73.48;100540.31;12189187;19;20488;-82
2022/08/06 02:50:40;;;;;;;1.63;1.38;;;;;;;15.57;73.31;100549.13;12211639;19;20011;-82
2022/08/06 02:54:48;;;;;;;2.80;1.63;;;;;;;15.50;72.68;100550.19;12192270;19;20010;-82
2022/08/06 02:58:53;;;;;;;3.53;1.60;;;;;;;15.49;72.79;100553.22;12212531;19;20006;-82
2022/08/06 03:03:02;;;;;;;4.32;1.60;;;;;;;15.45;72.87;100555.69;12236785;19;20002;-83
2022/08/06 03:07:18;;;;;;;3.10;1.30;;;;;;;15.41;72.53;100556.50;12196574;19;20021;-83
2022/08/06 03:11:31;;;;;;;;;;;;;;;15.39;72.53;100567.00;12219279;19;20018;-84
2022/08/06 03:15:34;;;;;;;2.05;1.55;;;;;;;15.34;73.07;100573.34;12200692;19;20337;-85
2022/08/06 03:19:57;;;;;;;3.15;1.60;;;;;;;15.27;73.35;100569.94;12224985;19;20532;-85
2022/08/06 03:24:00;;;;;;;4.22;1.50;;;;;;;15.19;73.39;100571.25;12219912;19;20010;-84
2022/08/06 03:28:05;;;;;;;4.07;1.55;;;;;;;15.14;73.57;100579.56;12200910;19;20089;-84
2022/08/06 03:32:08;;;;;;;4.93;1.42;;;;;;;15.11;73.62;100582.84;12214542;19;20411;-80
2022/08/06 03:36:31;;;;;;;3.72;1.60;;;;;;;15.04;73.42;100580.25;12218152;19;20473;-82
2022/08/06 03:40:35;;;;;;;3.10;1.45;;;;;;;14.99;73.22;100580.22;12195282;19;20018;-83
2022/08/06 03:44:38;;;;;;;2.85;1.35;;;;;;;14.94;73.53;100594.03;12214589;19;20575;-83
2022/08/06 03:48:42;;;;;;;3.10;1.52;;;;;;;14.91;73.21;100591.78;12191803;19;20011;-81
2022/08/06 03:52:47;;;;;;;1.83;1.10;;;;;;;14.87;72.67;100596.16;12216278;19;20015;-86
2022/08/06 03:56:54;;;;;;;2.03;1.48;;;;;;;14.85;72.43;100595.59;12214797;19;20011;-85
2022/08/06 04:01:03;;;;;;;2.92;1.38;;;;;;;14.84;72.23;100585.56;12190361;19;20010;-82
2022/08/06 04:05:11;;;;;;;1.30;1.20;;;;;;;14.80;72.43;100596.34;12212973;19;20006;-84
2022/08/06 04:09:15;;;;;;;2.10;1.30;;;;;;;14.74;72.16;100593.78;12213102;19;20022;-84
2022/08/06 04:13:39;;;;;;;1.95;1.27;;;;;;;14.69;72.28;100597.31;12190753;19;20018;-82
2022/08/06 04:18:01;;;;;;;6.10;1.55;;;;;;;14.66;72.36;100603.38;12211145;19;20007;-81
2022/08/06 04:22:03;;;;;;;3.17;1.38;;;;;;;14.65;72.26;100598.94;12191036;19;20010;-81
2022/08/06 04:26:27;;;;;;;2.60;1.52;;;;;;;14.60;72.35;100609.97;12211602;19;20368;-80
2022/08/06 04:30:32;;;;;;;3.92;1.20;;;;;;;14.56;72.50;100611.59;12207556;19;20031;-81
2022/08/06 04:34:38;;;;;;;3.45;1.40;;;;;;;14.54;72.14;100624.84;12188682;19;20006;-81
2022/08/06 04:39:00;;;;;;;4.38;1.58;;;;;;;14.50;72.26;100621.72;12211004;19;20011;-80
2022/08/06 04:43:05;;;;;;;2.80;1.35;;;;;;;14.47;72.28;100630.56;12187567;19;20010;-80
2022/08/06 04:47:08;;;;;;;5.40;1.63;;;;;;;14.43;72.54;100626.63;12206453;19;20399;-81
2022/08/06 04:51:11;;;;;;;6.60;1.60;;;;;;;14.39;72.69;100628.22;12207421;19;20010;-82
2022/08/06 04:55:33;;;;;;;4.03;1.60;;;;;;;14.37;72.53;100633.19;12183782;19;20033;-80
2022/08/06 04:59:35;;;;;;;6.38;1.70;;;;;;;14.32;73.10;100635.88;12206602;19;20010;-80
2022/08/06 05:03:51;;;;;;;2.85;1.60;;;;;;;14.29;72.72;100647.50;12219253;19;20022;-78
2022/08/06 05:08:14;;;;;;;3.65;1.40;;;;;;;14.26;73.62;100642.47;12233985;19;20014;-84
2022/08/06 05:12:32;;;;;;;3.25;1.60;;;;;;;14.25;73.33;100649.09;12211828;19;20007;-83
2022/08/06 05:16:43;;;;;;;;;;;;;;;14.23;73.42;100657.66;12190297;19;20523;-83
2022/08/06 05:20:56;;;;;;;3.35;1.45;;;;;;;14.25;73.36;100654.66;12212018;19;19907;-81
2022/08/06 05:24:58;;;;;;;3.88;1.70;;;;;;;14.25;73.86;100663.81;12187556;19;20675;-83
2022/08/06 05:29:04;;;;;;;6.55;1.60;;;;;;;14.27;73.58;100656.03;12209810;19;20010;-82
2022/08/06 05:33:05;;;;;;;4.25;1.60;;;;;;;14.34;73.74;100669.75;12211484;19;20007;-82
2022/08/06 05:37:07;;;;;;;2.70;1.40;;;;;;;14.39;73.80;100675.34;12187826;19;20499;-82
2022/08/06 05:41:11;;;;;;;2.85;1.63;;;;;;;14.48;73.83;100684.09;12209490;19;20006;-82
2022/08/06 05:45:18;;;;;;;2.35;1.50;;;;;;;14.55;73.32;100680.09;12208895;19;20028;-82
2022/08/06 05:49:39;;;;;;;2.33;1.58;;;;;;;14.64;73.00;100677.72;12185411;19;20608;-81
2022/08/06 05:54:10;;;;;;;3.33;1.33;;;;;;;14.74;73.20;100677.00;12202903;19;20373;-82
2022/08/06 05:58:29;;;;;;;3.40;1.88;;;;;;;14.85;72.67;100689.94;12190561;19;20010;-82
2022/08/06 06:02:32;;;;;;;3.45;1.33;;;;;;;14.93;72.39;100681.16;12209898;19;20006;-81
2022/08/06 06:06:39;;;;;;;3.90;1.50;;;;;;;15.03;72.43;100695.16;12184564;19;20031;-83
2022/08/06 06:10:45;;;;;;;3.63;1.38;;;;;;;15.13;72.19;100697.22;12210463;19;20480;-83
2022/08/06 06:14:53;;;;;;;5.22;1.90;;;;;;;15.25;72.12;100694.31;12219092;19;20010;-83
2022/08/06 06:19:19;;;;;;;3.40;1.35;;;;;;;15.36;71.92;100698.06;12199654;19;20014;-82
2022/08/06 06:23:44;;;;;;;2.60;1.50;;;;;;;15.49;71.40;100709.59;12218855;19;20003;-83
2022/08/06 06:27:55;;;;;;;4.05;1.52;;;;;;;15.71;71.00;100706.81;12197847;19;20026;-82
2022/08/06 06:32:10;;;;;;;4.05;1.27;;;;;;;15.86;70.81;100710.84;12213844;19;20010;-80
2022/08/06 06:36:50;;;;;;;4.80;1.33;;;;;;;16.06;70.63;100707.41;12215170;19;20129;-84
2022/08/06 06:41:27;;;;;;;4.90;1.50;;;;;;;16.30;69.96;100714.31;12192130;19;20010;-83
2022/08/06 06:45:56;;;;;;;4.65;1.40;;;;;;;16.53;69.30;100713.06;12212720;19;20046;-81
2022/08/06 06:50:23;;;;;;;4.50;1.58;;;;;;;16.74;68.88;100725.16;12112349;19;2004769;-81
2022/08/06 06:54:35;;;;;;;4.50;1.33;;;;;;;16.93;68.15;100724.78;12212223;19;20037;-81
2022/08/06 06:58:45;;;;;;;4.32;1.33;;;;;;;17.17;67.59;100722.38;12189434;19;20024;-81
2022/08/06 07:02:52;;;;;;;6.05;1.40;;;;;;;17.33;66.46;100726.91;12211428;19;20071;-83
2022/08/06 07:06:57;;;;;;;3.30;1.10;;;;;;;17.67;66.33;100723.69;12189848;19;20343;-84
2022/08/06 07:11:11;;;;;;;3.08;1.63;;;;;;;17.97;65.22;100723.75;12211843;19;20006;-83
2022/08/06 07:15:24;;;;;;;5.45;1.55;;;;;;;18.21;64.17;100720.44;12210959;19;20007;-87
2022/08/06 07:19:33;;;;;;;4.95;1.25;;;;;;;18.49;63.38;100724.59;12188001;19;20621;-86
2022/08/06 07:23:37;;;;;;;2.05;1.20;;;;;;;18.78;62.04;100718.47;12208297;19;20034;-84
2022/08/06 07:27:59;;;;;;;2.03;1.30;;;;;;;19.02;59.91;100722.28;12171587;19;20021;-86
2022/08/06 07:32:04;;;;;;;2.55;1.00;;;;;;;19.18;58.89;100731.44;12213945;19;20007;-86
2022/08/06 07:36:07;;;;;;;2.97;1.15;;;;;;;19.40;57.10;100733.06;12211040;19;20014;-84
2022/08/06 07:40:20;;;;;;;3.63;0.98;;;;;;;19.70;56.77;100720.91;12191038;19;20015;-83
2022/08/06 07:44:26;;;;;;;1.15;0.95;;;;;;;19.92;55.92;100726.09;12215672;19;20483;-84
2022/08/06 07:48:55;;;;;;;2.63;1.00;;;;;;;19.98;52.57;100734.13;12215687;19;20009;-85
2022/08/06 07:52:59;;;;;;;4.18;0.90;;;;;;;20.09;51.39;100734.91;12194627;19;20078;-86
2022/08/06 07:57:01;;;;;;;2.95;0.95;;;;;;;20.27;49.96;100733.38;12208454;19;20441;-86
2022/08/06 08:01:05;;;;;;;1.98;0.85;;;;;;;20.34;48.86;100724.63;12186703;19;20011;-85
2022/08/06 08:09:51;;;;;;;1.77;0.73;;;;;;;21.02;48.16;100723.72;12188706;19;20729;-86
2022/08/06 08:14:05;;;;;;;4.10;1.00;;;;;;;21.24;47.10;100721.22;12209732;19;20014;-83
2022/08/06 08:18:07;;;;;;;1.23;0.77;;;;;;;21.35;45.55;100725.53;12210796;19;20002;-83
2022/08/06 08:22:15;;;;;;;1.10;0.90;;;;;;;21.39;45.58;100723.03;12188265;19;20491;-85
2022/08/06 08:26:20;;;;;;;2.67;0.75;;;;;;;21.51;44.97;100731.84;12213908;19;20003;-84
2022/08/06 08:30:26;;;;;;;3.25;1.00;;;;;;;21.58;44.27;100729.50;12217739;19;20007;-84
2022/08/06 08:34:51;;;;;;;3.55;0.77;;;;;;;21.72;43.85;100737.19;12219302;19;20014;-81
2022/08/06 08:39:27;;;;;;;3.42;0.98;;;;;;;21.80;43.35;100728.91;12186346;19;20782;-87
2022/08/06 08:43:36;;;;;;;;;;;;;;;21.98;43.63;100723.59;12193836;19;20492;-85
2022/08/06 08:48:00;;;;;;;1.65;0.75;;;;;;;22.18;42.59;100730.88;12210262;19;19933;-85
2022/08/06 08:52:19;;;;;;;4.18;1.20;;;;;;;22.30;42.25;100726.47;12175370;19;20463;-86
2022/08/06 08:56:40;;;;;;;4.13;1.00;;;;;;;22.41;42.28;100724.31;12182675;19;20066;-86
2022/08/06 09:01:48;;;;;;;3.95;1.33;;;;;;;22.40;41.31;100724.63;12213299;19;20011;-88
2022/08/06 09:06:23;;;;;;;4.10;0.90;;;;;;;22.33;40.76;100716.59;12203189;19;20039;-87
2022/08/06 09:10:56;;;;;;;2.08;0.80;;;;;;;22.39;41.05;100723.78;12214554;19;20396;-84
2022/08/06 09:14:59;;;;;;;2.85;0.60;;;;;;;22.68;39.97;100715.13;12211932;19;20011;-83
2022/08/06 09:19:04;;;;;;;3.15;0.95;;;;;;;22.85;38.26;100730.56;12216154;19;20006;-86
2022/08/06 09:23:16;;;;;;;4.60;1.00;;;;;;;22.61;38.71;100714.72;12220222;19;20028;-87
2022/08/06 09:27:20;;;;;;;4.45;0.95;;;;;;;22.89;39.24;100731.63;12218214;19;20006;-86
2022/08/06 09:31:47;;;;;;;1.07;0.70;;;;;;;23.02;37.54;100722.38;12192541;19;20078;-86
2022/08/06 09:36:12;;;;;;;2.00;0.70;;;;;;;22.96;37.67;100721.69;12217164;19;20014;-86
2022/08/06 09:40:36;;;;;;;2.15;0.80;;;;;;;23.14;37.17;100717.09;12191755;19;20006;-86
2022/08/06 09:45:22;;;;;;;1.60;0.73;;;;;;;23.19;37.31;100722.59;12212271;19;20015;-88
2022/08/06 09:49:58;;;;;;;4.65;0.90;;;;;;;23.26;37.38;100725.03;12176072;19;20137;-87
2022/08/06 09:54:16;;;;;;;1.67;0.68;;;;;;;23.28;36.88;100716.25;12225021;19;20015;-86
2022/08/06 09:58:41;;;;;;;3.85;0.85;;;;;;;23.46;35.92;100706.03;12208909;19;20018;-87
2022/08/06 10:02:44;;;;;;;1.48;0.82;;;;;;;23.40;36.73;100713.75;12241116;19;20106;-86
2022/08/06 10:07:06;;;;;;;1.85;0.70;;;;;;;23.58;35.41;100709.97;12204136;19;20002;-84
2022/08/06 10:11:09;;;;;;;2.47;0.65;;;;;;;23.72;35.08;100703.50;12226567;19;20684;-87
2022/08/06 10:15:33;;;;;;;3.20;0.70;;;;;;;23.88;34.54;100710.44;12226348;19;20010;-87
2022/08/06 10:20:15;;;;;;;2.17;0.70;;;;;;;23.93;34.98;100706.69;12234718;19;20002;-86
2022/08/06 10:25:03;;;;;;;5.32;0.70;;;;;;;23.98;34.91;100704.59;12236622;19;20029;-86
2022/08/06 10:29:19;;;;;;;2.78;1.13;;;;;;;24.25;33.93;100711.25;12132659;19;2004335;-86
2022/08/06 10:33:30;;;;;;;1.48;0.95;;;;;;;24.28;34.51;100696.53;12232578;19;20002;-86
2022/08/06 10:37:37;;;;;;;3.90;0.90;;;;;;;24.53;34.24;100704.34;12207066;19;20483;-86
2022/08/06 10:42:02;;;;;;;4.25;0.82;;;;;;;24.79;34.13;100698.84;12219452;19;20376;-84
2022/08/06 10:46:22;;;;;;;1.48;0.85;;;;;;;24.75;33.32;100685.75;12203797;19;20146;-88
2022/08/06 10:50:31;;;;;;;1.80;0.70;;;;;;;25.06;33.66;100696.16;12228896;19;20494;-88
2022/08/06 10:54:45;;;;;;;1.17;0.65;;;;;;;25.18;32.83;100693.56;12206066;19;20017;-87
2022/08/06 10:58:52;;;;;;;2.80;0.90;;;;;;;25.31;32.83;100694.59;12226411;19;20040;-86
2022/08/06 11:03:33;;;;;;;2.15;1.00;;;;;;;25.28;33.16;100687.63;12234102;19;20412;-90
2022/08/06 11:08:55;;;;;;;0.90;0.70;;;;;;;25.56;33.33;100676.91;12209147;19;20007;-85
2022/08/06 11:13:08;;;;;;;2.58;0.80;;;;;;;25.82;32.24;100673.28;12223335;19;20034;-85
2022/08/06 11:17:12;;;;;;;1.58;0.70;;;;;;;25.61;32.49;100678.72;12224914;19;20018;-83
2022/08/06 11:21:42;;;;;;;5.65;2.60;;;;;;;25.64;32.66;100670.44;12227571;19;20611;-88
2022/08/06 11:31:06;;;;;;;0.95;0.73;;;;;;;26.00;32.42;100658.03;12196001;19;20030;-86
2022/08/06 11:35:34;;;;;;;3.45;0.80;;;;;;;26.14;30.50;100663.47;12221498;19;20390;-88
2022/08/06 11:40:10;;;;;;;4.28;0.80;;;;;;;25.80;31.10;100662.31;12186023;19;20010;-87
2022/08/06 11:49:35;;;;;;;0.98;0.60;;;;;;;26.24;31.17;100642.53;12219650;19;20010;-87
2022/08/06 11:59:14;;;;;;;2.47;0.70;;;;;;;26.65;30.10;100658.91;12224272;19;20006;-85
2022/08/06 12:04:06;;;;;;;1.00;0.70;;;;;;;27.46;28.91;100645.72;12219374;19;20006;-86
2022/08/06 12:08:21;;;;;;;;;;;;;;;28.01;28.70;100644.63;12218241;19;20017;-87
2022/08/06 12:23:35;;;;;;;4.20;0.70;;;;;;;29.68;26.16;100616.69;12225932;19;20010;-86
2022/08/06 12:28:13;;;;;;;3.80;0.73;;;;;;;30.06;25.07;100619.00;12220226;19;20014;-85
2022/08/06 12:32:36;;;;;;;3.78;0.80;;;;;;;30.11;25.24;100603.72;12220166;19;20128;-91
2022/08/06 12:37:05;;;;;;;5.28;1.00;;;;;;;30.88;24.88;100597.69;12191366;19;20044;-86
2022/08/06 12:41:09;;;;;;;2.53;1.23;;;;;;;31.17;24.04;100590.66;12219731;19;20018;-86
2022/08/06 12:45:34;;;;;;;2.57;1.00;;;;;;;31.58;23.92;100594.03;12214466;19;20024;-88
2022/08/06 12:49:56;;;;;;;1.92;1.10;;;;;;;32.25;23.87;100587.31;12196481;19;20035;-87
2022/08/06 12:54:05;;;;;;;;;;;;;;;32.78;23.17;100576.03;12222143;19;20376;-87
2022/08/06 12:58:17;;;;;;;2.25;0.82;;;;;;;33.48;22.42;100578.34;12198708;19;19911;-87
2022/08/06 13:02:43;;;;;;;3.40;1.00;;;;;;;34.01;21.49;100581.06;12221030;19;20039;-86
2022/08/06 13:06:50;;;;;;;1.08;0.80;;;;;;;34.58;19.91;100574.34;12192589;19;20349;-86
2022/08/06 13:11:30;;;;;;;1.67;0.80;;;;;;;34.24;20.53;100572.38;12210930;19;20014;-86
2022/08/06 13:16:02;;;;;;;3.55;0.80;;;;;;;34.81;20.09;100551.25;12184575;19;20022;-86
2022/08/06 13:20:40;;;;;;;0.88;0.77;;;;;;;34.64;20.03;100559.28;12213251;19;20093;-91
2022/08/06 13:25:52;;;;;;;2.60;1.00;;;;;;;34.34;19.92;100552.84;12201380;19;20454;-87
2022/08/06 13:30:34;;;;;;;2.55;0.80;;;;;;;35.67;19.90;100549.75;12218986;19;20023;-89
2022/08/06 13:34:48;;;;;;;2.33;0.90;;;;;;;35.73;19.15;100555.91;12203187;19;20011;-89
2022/08/06 13:38:59;;;;;;;2.80;1.05;;;;;;;35.43;18.99;100544.66;12223495;19;20353;-86
2022/08/06 13:43:11;;;;;;;1.55;0.85;;;;;;;35.57;18.37;100539.03;12194858;19;20011;-87
2022/08/06 13:47:42;;;;;;;0.90;0.77;;;;;;;36.43;17.68;100542.16;12222724;19;20027;-87
2022/08/06 13:52:03;;;;;;;2.35;0.80;;;;;;;35.96;18.12;100536.28;12198405;19;20504;-87
2022/08/06 13:56:08;;;;;;;2.70;1.27;;;;;;;35.90;17.89;100532.19;12219885;19;20010;-89
2022/08/06 14:04:52;;;;;;;1.17;0.70;;;;;;;36.77;17.49;100521.66;12199077;19;20093;-85
2022/08/06 14:09:08;;;;;;;1.42;0.80;;;;;;;37.05;17.06;100515.88;12222629;19;20029;-84
2022/08/06 14:13:35;;;;;;;1.48;0.90;;;;;;;37.72;16.22;100519.78;12196248;19;20011;-85
2022/08/06 14:17:38;;;;;;;1.00;0.60;;;;;;;37.16;16.93;100513.81;12226845;19;20066;-85
2022/08/06 14:21:46;;;;;;;3.33;0.75;;;;;;;36.22;17.36;100509.31;12205368;19;20035;-84
2022/08/06 14:25:50;;;;;;;3.22;0.70;;;;;;;36.83;16.83;100514.28;12222557;19;20015;-87
2022/08/06 14:30:04;;;;;;;1.77;0.70;;;;;;;36.85;16.90;100520.41;12221942;19;20123;-86
2022/08/06 14:34:27;;;;;;;2.03;0.70;;;;;;;36.34;17.25;100510.97;12193725;19;20009;-84
2022/08/06 14:38:55;;;;;;;1.58;0.85;;;;;;;34.28;18.61;100517.22;12218721;19;20508;-85
2022/08/06 14:47:43;;;;;;;4.43;0.80;;;;;;;30.51;21.85;100511.78;12222592;19;20024;-86
2022/08/06 14:56:49;;;;;;;4.10;0.90;;;;;;;30.14;22.25;100504.34;12217153;19;20468;-87
2022/08/06 15:01:21;;;;;;;0.98;0.80;;;;;;;28.86;23.38;100501.38;12191525;19;20011;-88
2022/08/06 15:05:27;;;;;;;1.40;0.73;;;;;;;28.18;24.27;100485.78;12215717;19;20007;-85
2022/08/06 15:09:55;;;;;;;0.63;0.60;;;;;;;28.06;24.02;100482.94;12197860;19;20039;-88
2022/08/06 15:14:17;;;;;;;2.33;0.73;;;;;;;27.95;24.00;100471.22;12223352;19;20011;-89
2022/08/06 15:18:55;;;;;;;1.45;1.00;;;;;;;27.48;24.95;100482.88;12199105;19;20066;-88
2022/08/06 15:23:33;;;;;;;1.40;0.90;;;;;;;27.25;24.88;100471.09;12220943;19;20019;-89
2022/08/06 15:28:16;;;;;;;3.30;0.60;;;;;;;26.96;24.95;100473.97;12198508;19;20010;-84
2022/08/06 15:32:21;;;;;;;1.35;0.75;;;;;;;26.57;25.55;100476.06;12216859;19;20011;-86
2022/08/06 15:36:29;;;;;;;1.33;0.70;;;;;;;26.41;25.62;100474.94;12222725;19;20034;-87
2022/08/06 15:40:34;;;;;;;1.55;0.60;;;;;;;26.30;26.59;100469.69;12196905;19;20032;-87
2022/08/06 15:44:35;;;;;;;1.85;0.80;;;;;;;26.97;25.63;100469.94;12227176;19;20014;-86
2022/08/06 15:48:42;;;;;;;5.32;1.02;;;;;;;27.31;25.80;100468.03;12214925;19;20365;-87
2022/08/06 15:52:54;;;;;;;1.52;0.50;;;;;;;28.34;24.33;100470.91;12199514;19;20018;-87
2022/08/06 15:56:59;;;;;;;1.77;0.98;;;;;;;28.32;24.28;100470.44;12264550;19;20042;-89
2022/08/06 16:01:00;;;;;;;1.60;0.63;;;;;;;27.83;24.80;100470.38;12210304;19;20026;-87
2022/08/06 16:05:09;;;;;;;1.88;0.60;;;;;;;27.36;25.28;100465.00;12221461;19;20007;-87
2022/08/06 16:09:13;;;;;;;4.53;1.08;;;;;;;26.93;25.76;100458.50;12222149;19;20038;-84
2022/08/06 16:13:30;;;;;;;1.83;0.63;;;;;;;26.57;26.22;100459.09;12201571;19;20018;-86
2022/08/06 16:17:34;;;;;;;1.85;0.60;;;;;;;26.33;26.29;100468.19;12222675;19;20531;-86
2022/08/06 16:21:57;;;;;;;5.32;0.80;;;;;;;26.14;26.52;100460.09;12202791;19;20058;-86
2022/08/06 16:26:00;;;;;;;1.60;0.70;;;;;;;26.09;26.42;100463.16;12220769;19;20014;-86
2022/08/06 16:30:22;;;;;;;3.30;0.67;;;;;;;25.75;27.36;100464.03;12221041;19;20434;-86
2022/08/06 16:34:25;;;;;;;1.90;1.00;;;;;;;25.40;27.82;100470.59;12195673;19;20779;-89
2022/08/06 16:38:31;;;;;;;2.63;0.60;;;;;;;25.29;27.44;100457.16;12218697;19;20597;-87
2022/08/06 16:42:35;;;;;;;1.13;0.55;;;;;;;25.15;27.93;100465.78;12218649;19;20505;-87
2022/08/06 16:46:37;;;;;;;2.78;0.75;;;;;;;25.00;27.73;100458.63;12192700;19;20022;-84
2022/08/06 16:50:44;;;;;;;2.50;0.50;;;;;;;24.90;27.85;100459.78;12216516;19;20014;-87
2022/08/06 16:54:47;;;;;;;2.15;0.60;;;;;;;24.84;27.86;100455.47;12200636;19;20031;-88
2022/08/06 16:58:49;;;;;;;1.20;0.60;;;;;;;24.79;28.75;100456.44;12217893;19;20014;-83
2022/08/06 17:02:53;;;;;;;4.90;0.60;;;;;;;24.85;28.21;100456.31;12213584;19;20483;-84
2022/08/06 17:06:55;;;;;;;1.57;0.60;;;;;;;24.72;28.53;100455.31;12190948;19;20772;-83
2022/08/06 17:11:00;;;;;;;1.15;0.50;;;;;;;24.67;28.36;100452.63;12212163;19;20010;-83
2022/08/06 17:15:04;;;;;;;1.63;0.70;;;;;;;24.63;27.95;100451.59;12211094;19;20014;-83
2022/08/06 17:19:26;;;;;;;3.85;0.70;;;;;;;24.58;28.09;100446.97;12184091;19;20390;-83
2022/08/06 17:23:29;;;;;;;2.42;0.88;;;;;;;24.72;29.18;100455.31;12207446;19;20007;-83
2022/08/06 17:27:35;;;;;;;1.75;0.63;;;;;;;25.41;27.97;100454.50;12209488;19;20400;-82
2022/08/06 17:31:57;;;;;;;2.03;0.57;;;;;;;24.99;28.58;100451.34;12184865;19;20376;-83
2022/08/06 17:35:59;;;;;;;4.85;0.70;;;;;;;24.60;29.09;100458.75;12204379;19;20082;-82
2022/08/06 17:40:24;;;;;;;3.10;0.60;;;;;;;24.33;28.94;100454.16;12183345;19;20469;-81
2022/08/06 17:44:33;;;;;;;2.87;1.07;;;;;;;24.14;30.00;100457.25;12205125;19;20017;-84
2022/08/06 17:48:36;;;;;;;4.90;0.90;;;;;;;24.05;29.70;100451.59;12201556;19;20006;-83
2022/08/06 17:52:39;;;;;;;4.20;0.73;;;;;;;24.02;30.06;100457.88;12185941;19;20010;-82
2022/08/06 17:56:41;;;;;;;5.28;0.70;;;;;;;23.88;30.16;100454.31;12206629;19;20039;-80
2022/08/06 18:00:45;;;;;;;3.30;0.80;;;;;;;23.74;29.75;100462.03;12180254;19;20011;-84
2022/08/06 18:04:49;;;;;;;1.85;0.50;;;;;;;23.70;30.38;100458.19;12205785;19;20030;-81
2022/08/06 18:08:51;;;;;;;2.05;0.90;;;;;;;23.78;30.54;100460.25;12214959;19;20578;-84
2022/08/06 18:12:56;;;;;;;2.25;1.10;;;;;;;23.58;30.30;100468.03;12194762;19;20028;-83
2022/08/06 18:16:58;;;;;;;2.10;0.77;;;;;;;23.38;31.11;100476.97;12215218;19;20014;-81
2022/08/06 18:21:00;;;;;;;2.17;0.85;;;;;;;23.19;30.92;100478.00;12216525;19;20006;-83
2022/08/06 18:25:23;;;;;;;0.90;0.65;;;;;;;22.91;31.65;100482.03;12195747;19;20496;-81
2022/08/06 18:29:25;;;;;;;;;;;;;;;22.74;31.40;100477.91;12215911;19;20066;-81
2022/08/06 18:33:46;;;;;;;1.17;0.55;;;;;;;22.65;31.40;100485.41;12197216;19;19927;-82
2022/08/06 18:37:54;;;;;;;1.25;0.80;;;;;;;22.49;31.68;100493.34;12217830;19;20011;-79
2022/08/06 18:42:04;;;;;;;3.17;0.95;;;;;;;22.36;31.95;100490.53;12215981;19;20017;-80
2022/08/06 18:46:06;;;;;;;2.08;1.20;;;;;;;22.17;32.18;100496.25;12191630;19;20011;-79
2022/08/06 18:50:11;;;;;;;1.45;1.10;;;;;;;21.96;32.69;100490.19;12207420;19;19999;-81
2022/08/06 18:54:15;;;;;;;4.53;1.33;;;;;;;21.78;32.81;100489.09;12213380;19;20015;-79
2022/08/06 18:58:24;;;;;;;1.70;0.60;;;;;;;21.64;32.81;100494.66;12192234;19;20021;-79
2022/08/06 19:02:30;;;;;;;2.08;0.70;;;;;;;21.45;33.23;100491.91;12210308;19;20011;-81
2022/08/06 19:06:33;;;;;;;1.90;0.90;;;;;;;21.26;33.50;100503.09;12212998;19;20010;-82
2022/08/06 19:10:35;;;;;;;3.83;0.80;;;;;;;21.09;33.80;100509.28;12190653;19;20019;-81
2022/08/06 19:14:37;;;;;;;1.58;0.60;;;;;;;20.96;33.93;100512.00;12212046;19;20097;-79
2022/08/06 19:18:44;;;;;;;3.28;0.75;;;;;;;20.83;34.16;100507.97;12197192;19;20010;-80
2022/08/06 19:22:51;;;;;;;2.63;0.80;;;;;;;20.65;34.88;100518.84;12216333;19;20011;-82
2022/08/06 19:27:03;;;;;;;2.20;0.60;;;;;;;20.60;34.75;100526.47;12216707;19;20011;-80
2022/08/06 19:31:06;;;;;;;1.08;0.60;;;;;;;20.40;35.70;100514.34;12196701;19;20087;-81
2022/08/06 19:35:11;;;;;;;3.22;0.60;;;;;;;20.30;36.07;100528.47;12213544;19;20011;-81
2022/08/06 19:39:17;;;;;;;3.08;0.65;;;;;;;20.17;35.70;100532.00;12214978;19;19999;-80
2022/08/06 19:43:40;;;;;;;2.85;0.57;;;;;;;20.00;36.31;100535.25;12224426;19;20002;-78
2022/08/06 19:48:01;;;;;;;1.02;0.60;;;;;;;19.89;36.05;100540.09;12229507;19;20389;-82
2022/08/06 19:52:07;;;;;;;1.40;0.60;;;;;;;19.76;36.48;100533.22;12188172;19;19999;-80
2022/08/06 19:56:09;;;;;;;1.73;0.60;;;;;;;19.68;36.93;100538.63;12214345;19;20010;-82
2022/08/06 20:00:21;;;;;;;0.68;0.65;;;;;;;19.57;37.59;100541.47;12211834;19;20378;-79
2022/08/06 20:04:44;;;;;;;3.42;0.70;;;;;;;19.45;37.60;100532.59;12189152;19;20035;-80
2022/08/06 20:08:53;;;;;;;7.03;0.82;;;;;;;19.34;37.97;100554.22;12211218;19;20417;-80
2022/08/06 20:12:55;;;;;;;3.92;0.82;;;;;;;19.23;37.93;100544.25;12191357;19;20010;-80
2022/08/06 20:16:58;;;;;;;0.75;0.63;;;;;;;19.09;38.96;100544.03;12210717;19;20014;-80